In Rescue
 
Open Full Screen Window  High Contrast Mode
Wind Gusting 00 knots
05
March 01, 2024 3:46 PM CST
Weather Information
Wind Direction
  170 °
Wind Speed
  05 kt (6 mph)
Wind Gust
  00 kt (0 mph)
Altimeter
29.71 in
Visibility
10 SM
Temperature
15° C
59° F
Dewpoint
-01° C
30° F
Humidity
33%
Sky Condition
Clear
VFR

METAR KLJF 012146Z AUTO 17005KT 10SM CLR 15/M01 A2971 RMK AO2

FAA Disclaimer: The data displayed is for advisory purposes only and is not to be used for flight planning or operations.